Cedar Falls, IA

3:33 AM CST on December 27, 2014 (GMT -0600)
Columbus Dr - Waterloo | Change Station
CLOSE
Current Station
Personal Weather Station
Location: Waterloo, IA
Elevation: 910 ft
Nearby Weather Stations

Elev 910 ft 42.47 °N, 92.34 °W | Updated 5 seconds ago

Light Rain
Light Rain Mist
34.7 °F
Feels Like 35 °F
N
0.0
Wind Variable Wind from WSW
Gusts 1.0 mph

Today
High -- | Low -- °F
--% Chance of Precip.
Yesterday
High -- | Low -- °F
Precip. -- in
7:38 AM 4:43 PM
Waxing Crescent, 34% visible
Pressure 29.90 in
Visibility 2.5 miles
Clouds Overcast 1400 ft
Windchill 35 °F
Dew Point 34 °F
Humidity 97%
Rainfall 0.05 in
Snow Depth Not available.
UV 0 out of 12
Pollen .10 out of 12
Air Quality Not available.
Flu Activity Not available.
SPECI KALO 270928Z AUTO 23005KT 2 1/2SM -RA BR OVC014 01/01 A2990 RMK AO2 P0003 T00110011

More Conditions Fewer Conditions

Pressure 29.90 in
Visibility 2.5 miles
Clouds Overcast 1400 ft
Windchill 35 °F
Dew Point 34 °F
Humidity 97%
Rainfall 0.05 in
Snow Depth Not available.
UV 0 out of 12
Pollen .10 out of 12
Air Quality Not available.
Flu Activity Not available.
SPECI KALO 270928Z AUTO 23005KT 2 1/2SM -RA BR OVC014 01/01 A2990 RMK AO2 P0003 T00110011

More Conditions Fewer Conditions

10-Day Weather Forecast

Almanac

Astronomy

Dec. 27, 2014 Rise Set
Actual Time
Civil Twilight
Nautical Twilight
Astronomical Twilight
Moon
Length of Visible Light
Length of Day
Tomorrow will be .
, % of the Moon is Illuminated

Today's Extremes

State Highs State Lows

Community

WunderPhotos

Upload Photos

1,780,869 photos uploaded!

WunderBlogs® & News

Nearby

Air Quality

  Air Quality AQ Index Pollutant
Not available.

Snow Depth

Station Depth Elevation

Earthquake Activity

City Distance Mag. Time & Date
Minimum magnitude displayed is 2.5.

Coastal Water Temperatures

Place Temperature

Nearby Weather Stations